sensor_id;sensor_type;location;lat;lon;timestamp;pressure;altitude;pressure_sealevel;temperature;humidity
70370;BME280;57790;51.356;-2.906;2023-03-15T00:00:55;101695.13;;;9.04;100.00
70370;BME280;57790;51.356;-2.906;2023-03-15T00:03:55;101700.69;;;9.01;100.00
70370;BME280;57790;51.356;-2.906;2023-03-15T00:06:56;101690.59;;;8.94;100.00
70370;BME280;57790;51.356;-2.906;2023-03-15T00:09:56;101693.63;;;8.90;100.00
70370;BME280;57790;51.356;-2.906;2023-03-15T00:12:57;101708.91;;;8.86;100.00
70370;BME280;57790;51.356;-2.906;2023-03-15T00:15:59;101720.78;;;8.92;100.00
70370;BME280;57790;51.356;-2.906;2023-03-15T00:18:59;101705.19;;;8.89;100.00
70370;BME280;57790;51.356;-2.906;2023-03-15T00:22:00;101706.16;;;8.88;100.00
70370;BME280;57790;51.356;-2.906;2023-03-15T00:25:00;101699.66;;;8.81;100.00
70370;BME280;57790;51.356;-2.906;2023-03-15T00:28:01;101696.84;;;8.73;100.00
70370;BME280;57790;51.356;-2.906;2023-03-15T00:31:22;101699.34;;;8.74;100.00
70370;BME280;57790;51.356;-2.906;2023-03-15T00:34:23;101693.50;;;8.71;100.00
70370;BME280;57790;51.356;-2.906;2023-03-15T00:37:26;101695.06;;;8.62;100.00
70370;BME280;57790;51.356;-2.906;2023-03-15T00:40:26;101703.59;;;8.65;100.00
70370;BME280;57790;51.356;-2.906;2023-03-15T00:43:27;101700.63;;;8.59;100.00
70370;BME280;57790;51.356;-2.906;2023-03-15T00:46:27;101706.75;;;8.59;100.00
70370;BME280;57790;51.356;-2.906;2023-03-15T00:49:28;101709.00;;;8.64;100.00
70370;BME280;57790;51.356;-2.906;2023-03-15T00:52:33;101714.22;;;8.54;100.00
70370;BME280;57790;51.356;-2.906;2023-03-15T00:55:35;101719.16;;;8.48;100.00
70370;BME280;57790;51.356;-2.906;2023-03-15T00:58:35;101713.53;;;8.41;100.00
70370;BME280;57790;51.356;-2.906;2023-03-15T01:01:36;101709.31;;;8.39;100.00
70370;BME280;57790;51.356;-2.906;2023-03-15T01:04:37;101708.72;;;8.35;100.00
70370;BME280;57790;51.356;-2.906;2023-03-15T01:07:38;101716.28;;;8.28;100.00
70370;BME280;57790;51.356;-2.906;2023-03-15T01:10:38;101722.28;;;8.30;100.00
70370;BME280;57790;51.356;-2.906;2023-03-15T01:13:39;101728.53;;;8.29;100.00
70370;BME280;57790;51.356;-2.906;2023-03-15T01:16:40;101733.09;;;8.27;100.00
70370;BME280;57790;51.356;-2.906;2023-03-15T01:19:40;101731.06;;;8.20;100.00
70370;BME280;57790;51.356;-2.906;2023-03-15T01:22:41;101742.97;;;8.14;100.00
70370;BME280;57790;51.356;-2.906;2023-03-15T01:25:41;101751.47;;;8.18;100.00
70370;BME280;57790;51.356;-2.906;2023-03-15T01:28:42;101751.72;;;8.15;100.00
70370;BME280;57790;51.356;-2.906;2023-03-15T01:31:43;101745.72;;;8.13;100.00
70370;BME280;57790;51.356;-2.906;2023-03-15T01:34:43;101748.84;;;8.18;100.00
70370;BME280;57790;51.356;-2.906;2023-03-15T01:37:43;101753.53;;;8.14;100.00
70370;BME280;57790;51.356;-2.906;2023-03-15T01:40:44;101755.47;;;8.12;100.00
70370;BME280;57790;51.356;-2.906;2023-03-15T01:43:45;101748.13;;;8.04;100.00
70370;BME280;57790;51.356;-2.906;2023-03-15T01:46:48;101747.03;;;8.07;100.00
70370;BME280;57790;51.356;-2.906;2023-03-15T01:49:53;101755.09;;;8.05;100.00
70370;BME280;57790;51.356;-2.906;2023-03-15T01:52:56;101757.00;;;8.03;100.00
70370;BME280;57790;51.356;-2.906;2023-03-15T01:55:56;101747.16;;;7.94;100.00
70370;BME280;57790;51.356;-2.906;2023-03-15T01:58:58;101736.84;;;7.91;100.00
70370;BME280;57790;51.356;-2.906;2023-03-15T02:02:00;101743.34;;;7.87;100.00
70370;BME280;57790;51.356;-2.906;2023-03-15T02:05:06;101749.34;;;7.89;100.00
70370;BME280;57790;51.356;-2.906;2023-03-15T02:08:11;101751.25;;;7.87;100.00
70370;BME280;57790;51.356;-2.906;2023-03-15T02:11:17;101767.09;;;7.87;100.00
70370;BME280;57790;51.356;-2.906;2023-03-15T02:14:19;101763.03;;;7.83;100.00
70370;BME280;57790;51.356;-2.906;2023-03-15T02:17:27;101763.47;;;7.77;100.00
70370;BME280;57790;51.356;-2.906;2023-03-15T02:20:44;101773.91;;;7.79;100.00
70370;BME280;57790;51.356;-2.906;2023-03-15T02:23:54;101772.50;;;7.74;100.00
70370;BME280;57790;51.356;-2.906;2023-03-15T02:26:56;101775.25;;;7.73;100.00
70370;BME280;57790;51.356;-2.906;2023-03-15T02:29:57;101766.63;;;7.71;100.00
70370;BME280;57790;51.356;-2.906;2023-03-15T02:33:00;101764.94;;;7.70;100.00
70370;BME280;57790;51.356;-2.906;2023-03-15T02:39:22;101752.19;;;7.64;100.00
70370;BME280;57790;51.356;-2.906;2023-03-15T02:42:24;101744.53;;;7.61;100.00
70370;BME280;57790;51.356;-2.906;2023-03-15T02:45:26;101754.13;;;7.62;100.00
70370;BME280;57790;51.356;-2.906;2023-03-15T02:48:29;101766.00;;;7.56;100.00
70370;BME280;57790;51.356;-2.906;2023-03-15T02:51:31;101764.53;;;7.52;100.00
70370;BME280;57790;51.356;-2.906;2023-03-15T02:54:32;101749.91;;;7.48;100.00
70370;BME280;57790;51.356;-2.906;2023-03-15T02:57:33;101757.94;;;7.46;100.00
70370;BME280;57790;51.356;-2.906;2023-03-15T03:00:33;101762.38;;;7.46;100.00
70370;BME280;57790;51.356;-2.906;2023-03-15T03:03:34;101765.84;;;7.46;100.00
70370;BME280;57790;51.356;-2.906;2023-03-15T03:06:34;101767.75;;;7.44;100.00
70370;BME280;57790;51.356;-2.906;2023-03-15T03:09:35;101756.63;;;7.41;100.00
70370;BME280;57790;51.356;-2.906;2023-03-15T03:12:35;101762.22;;;7.36;100.00
70370;BME280;57790;51.356;-2.906;2023-03-15T03:15:36;101764.13;;;7.34;100.00
70370;BME280;57790;51.356;-2.906;2023-03-15T03:18:37;101757.53;;;7.29;100.00
70370;BME280;57790;51.356;-2.906;2023-03-15T03:21:37;101757.91;;;7.24;100.00
70370;BME280;57790;51.356;-2.906;2023-03-15T03:24:38;101769.13;;;7.15;100.00
70370;BME280;57790;51.356;-2.906;2023-03-15T03:27:39;101775.13;;;7.17;100.00
70370;BME280;57790;51.356;-2.906;2023-03-15T03:30:39;101768.66;;;7.21;100.00
70370;BME280;57790;51.356;-2.906;2023-03-15T03:33:40;101775.84;;;7.19;100.00
70370;BME280;57790;51.356;-2.906;2023-03-15T03:36:41;101763.00;;;7.14;100.00
70370;BME280;57790;51.356;-2.906;2023-03-15T03:39:42;101770.81;;;7.16;100.00
70370;BME280;57790;51.356;-2.906;2023-03-15T03:42:42;101762.53;;;7.09;100.00
70370;BME280;57790;51.356;-2.906;2023-03-15T03:45:43;101754.09;;;7.04;100.00
70370;BME280;57790;51.356;-2.906;2023-03-15T03:48:43;101755.91;;;7.04;100.00
70370;BME280;57790;51.356;-2.906;2023-03-15T03:51:44;101757.81;;;7.02;100.00
70370;BME280;57790;51.356;-2.906;2023-03-15T03:54:44;101764.75;;;7.03;100.00
70370;BME280;57790;51.356;-2.906;2023-03-15T03:57:44;101754.56;;;6.98;100.00
70370;BME280;57790;51.356;-2.906;2023-03-15T04:00:45;101754.03;;;6.93;100.00
70370;BME280;57790;51.356;-2.906;2023-03-15T04:03:46;101757.75;;;6.91;100.00
70370;BME280;57790;51.356;-2.906;2023-03-15T04:06:47;101760.28;;;6.92;100.00
70370;BME280;57790;51.356;-2.906;2023-03-15T04:09:49;101755.47;;;6.86;100.00
70370;BME280;57790;51.356;-2.906;2023-03-15T04:12:50;101751.03;;;6.86;100.00
70370;BME280;57790;51.356;-2.906;2023-03-15T04:15:50;101761.69;;;6.85;100.00
70370;BME280;57790;51.356;-2.906;2023-03-15T04:18:51;101760.84;;;6.84;100.00
70370;BME280;57790;51.356;-2.906;2023-03-15T04:21:55;101757.03;;;6.89;100.00
70370;BME280;57790;51.356;-2.906;2023-03-15T04:24:56;101757.50;;;6.82;100.00
70370;BME280;57790;51.356;-2.906;2023-03-15T04:27:56;101754.63;;;6.85;100.00
70370;BME280;57790;51.356;-2.906;2023-03-15T04:31:02;101758.22;;;6.84;100.00
70370;BME280;57790;51.356;-2.906;2023-03-15T04:34:03;101757.28;;;6.85;100.00
70370;BME280;57790;51.356;-2.906;2023-03-15T04:37:04;101754.97;;;6.81;100.00
70370;BME280;57790;51.356;-2.906;2023-03-15T04:40:05;101749.19;;;6.76;100.00
70370;BME280;57790;51.356;-2.906;2023-03-15T04:43:07;101754.06;;;6.69;100.00
70370;BME280;57790;51.356;-2.906;2023-03-15T04:46:08;101763.25;;;6.64;100.00
70370;BME280;57790;51.356;-2.906;2023-03-15T04:49:08;101759.91;;;6.62;100.00
70370;BME280;57790;51.356;-2.906;2023-03-15T04:52:09;101764.94;;;6.65;100.00
70370;BME280;57790;51.356;-2.906;2023-03-15T04:55:09;101752.00;;;6.62;100.00
70370;BME280;57790;51.356;-2.906;2023-03-15T04:58:10;101762.25;;;6.53;100.00
70370;BME280;57790;51.356;-2.906;2023-03-15T05:01:10;101762.03;;;6.56;100.00
70370;BME280;57790;51.356;-2.906;2023-03-15T05:04:11;101763.72;;;6.57;100.00
70370;BME280;57790;51.356;-2.906;2023-03-15T05:07:12;101758.66;;;6.54;100.00
70370;BME280;57790;51.356;-2.906;2023-03-15T05:10:13;101765.72;;;6.54;100.00
70370;BME280;57790;51.356;-2.906;2023-03-15T05:13:13;101768.69;;;6.49;100.00
70370;BME280;57790;51.356;-2.906;2023-03-15T05:16:16;101760.28;;;6.44;100.00
70370;BME280;57790;51.356;-2.906;2023-03-15T05:19:17;101763.97;;;6.42;100.00
70370;BME280;57790;51.356;-2.906;2023-03-15T05:22:18;101773.78;;;6.40;100.00
70370;BME280;57790;51.356;-2.906;2023-03-15T05:25:18;101773.56;;;6.43;100.00
70370;BME280;57790;51.356;-2.906;2023-03-15T05:28:20;101777.25;;;6.40;100.00
70370;BME280;57790;51.356;-2.906;2023-03-15T05:31:21;101774.50;;;6.42;100.00
70370;BME280;57790;51.356;-2.906;2023-03-15T05:34:21;101784.44;;;6.38;100.00
70370;BME280;57790;51.356;-2.906;2023-03-15T05:37:23;101778.22;;;6.39;100.00
70370;BME280;57790;51.356;-2.906;2023-03-15T05:40:23;101781.28;;;6.33;100.00
70370;BME280;57790;51.356;-2.906;2023-03-15T05:43:24;101776.72;;;6.35;100.00
70370;BME280;57790;51.356;-2.906;2023-03-15T05:46:24;101788.44;;;6.31;100.00
70370;BME280;57790;51.356;-2.906;2023-03-15T05:49:24;101783.50;;;6.26;100.00
70370;BME280;57790;51.356;-2.906;2023-03-15T05:52:25;101782.56;;;6.28;100.00
70370;BME280;57790;51.356;-2.906;2023-03-15T05:55:25;101785.19;;;6.28;100.00
70370;BME280;57790;51.356;-2.906;2023-03-15T05:58:26;101784.75;;;6.21;100.00
70370;BME280;57790;51.356;-2.906;2023-03-15T06:01:26;101791.81;;;6.20;100.00
70370;BME280;57790;51.356;-2.906;2023-03-15T06:04:27;101790.03;;;6.21;100.00
70370;BME280;57790;51.356;-2.906;2023-03-15T06:07:27;101785.00;;;6.18;100.00
70370;BME280;57790;51.356;-2.906;2023-03-15T06:10:27;101787.63;;;6.18;100.00
70370;BME280;57790;51.356;-2.906;2023-03-15T06:13:28;101791.31;;;6.15;100.00
70370;BME280;57790;51.356;-2.906;2023-03-15T06:16:29;101791.22;;;6.17;100.00
70370;BME280;57790;51.356;-2.906;2023-03-15T06:19:29;101793.94;;;6.15;100.00
70370;BME280;57790;51.356;-2.906;2023-03-15T06:22:30;101797.53;;;6.14;100.00
70370;BME280;57790;51.356;-2.906;2023-03-15T06:25:30;101803.41;;;6.18;100.00
70370;BME280;57790;51.356;-2.906;2023-03-15T06:28:31;101805.22;;;6.17;100.00
70370;BME280;57790;51.356;-2.906;2023-03-15T06:31:31;101795.53;;;6.18;100.00
70370;BME280;57790;51.356;-2.906;2023-03-15T06:34:31;101806.28;;;6.15;100.00
70370;BME280;57790;51.356;-2.906;2023-03-15T06:37:32;101805.81;;;6.21;100.00
70370;BME280;57790;51.356;-2.906;2023-03-15T06:40:35;101809.00;;;6.13;100.00
70370;BME280;57790;51.356;-2.906;2023-03-15T06:43:35;101808.28;;;6.11;100.00
70370;BME280;57790;51.356;-2.906;2023-03-15T06:46:36;101804.91;;;6.09;100.00
70370;BME280;57790;51.356;-2.906;2023-03-15T06:49:36;101806.59;;;6.10;100.00
70370;BME280;57790;51.356;-2.906;2023-03-15T06:52:38;101814.50;;;6.10;100.00
70370;BME280;57790;51.356;-2.906;2023-03-15T06:55:38;101821.97;;;6.16;100.00
70370;BME280;57790;51.356;-2.906;2023-03-15T06:58:39;101816.19;;;6.11;100.00
70370;BME280;57790;51.356;-2.906;2023-03-15T07:01:40;101820.50;;;6.12;100.00
70370;BME280;57790;51.356;-2.906;2023-03-15T07:04:41;101817.53;;;6.17;100.00
70370;BME280;57790;51.356;-2.906;2023-03-15T07:07:43;101819.44;;;6.15;100.00
70370;BME280;57790;51.356;-2.906;2023-03-15T07:10:44;101823.84;;;6.14;100.00
70370;BME280;57790;51.356;-2.906;2023-03-15T07:13:45;101819.31;;;6.16;100.00
70370;BME280;57790;51.356;-2.906;2023-03-15T07:16:46;101815.41;;;6.22;100.00
70370;BME280;57790;51.356;-2.906;2023-03-15T07:19:47;101824.19;;;6.22;100.00
70370;BME280;57790;51.356;-2.906;2023-03-15T07:22:47;101833.66;;;6.25;100.00
70370;BME280;57790;51.356;-2.906;2023-03-15T07:25:48;101824.69;;;6.28;100.00
70370;BME280;57790;51.356;-2.906;2023-03-15T07:28:49;101829.72;;;6.31;100.00
70370;BME280;57790;51.356;-2.906;2023-03-15T07:31:50;101825.91;;;6.35;100.00
70370;BME280;57790;51.356;-2.906;2023-03-15T07:34:50;101815.38;;;6.35;100.00
70370;BME280;57790;51.356;-2.906;2023-03-15T07:37:51;101812.97;;;6.32;100.00
70370;BME280;57790;51.356;-2.906;2023-03-15T07:40:51;101824.06;;;6.37;100.00
70370;BME280;57790;51.356;-2.906;2023-03-15T07:43:52;101806.47;;;6.37;100.00
70370;BME280;57790;51.356;-2.906;2023-03-15T07:46:52;101813.69;;;6.46;100.00
70370;BME280;57790;51.356;-2.906;2023-03-15T07:49:54;101820.63;;;6.47;100.00
70370;BME280;57790;51.356;-2.906;2023-03-15T07:52:54;101820.31;;;6.52;100.00
70370;BME280;57790;51.356;-2.906;2023-03-15T07:55:54;101816.00;;;6.51;100.00
70370;BME280;57790;51.356;-2.906;2023-03-15T07:58:55;101810.50;;;6.54;100.00
70370;BME280;57790;51.356;-2.906;2023-03-15T08:01:55;101815.44;;;6.59;100.00
70370;BME280;57790;51.356;-2.906;2023-03-15T08:04:56;101809.22;;;6.60;100.00
70370;BME280;57790;51.356;-2.906;2023-03-15T08:07:57;101813.97;;;6.67;100.00
70370;BME280;57790;51.356;-2.906;2023-03-15T08:10:58;101812.78;;;6.71;100.00
70370;BME280;57790;51.356;-2.906;2023-03-15T08:13:58;101818.88;;;6.72;100.00
70370;BME280;57790;51.356;-2.906;2023-03-15T08:16:59;101820.09;;;6.79;100.00
70370;BME280;57790;51.356;-2.906;2023-03-15T08:19:59;101814.22;;;6.75;100.00
70370;BME280;57790;51.356;-2.906;2023-03-15T08:23:05;101815.69;;;6.79;100.00
70370;BME280;57790;51.356;-2.906;2023-03-15T08:26:05;101817.59;;;6.77;100.00
70370;BME280;57790;51.356;-2.906;2023-03-15T08:29:06;101810.63;;;6.76;100.00
70370;BME280;57790;51.356;-2.906;2023-03-15T08:32:06;101807.69;;;6.81;100.00
70370;BME280;57790;51.356;-2.906;2023-03-15T08:35:07;101808.06;;;6.88;100.00
70370;BME280;57790;51.356;-2.906;2023-03-15T08:38:08;101808.56;;;6.93;100.00
70370;BME280;57790;51.356;-2.906;2023-03-15T08:41:08;101809.81;;;7.00;100.00
70370;BME280;57790;51.356;-2.906;2023-03-15T08:44:09;101806.22;;;7.01;100.00
70370;BME280;57790;51.356;-2.906;2023-03-15T08:47:09;101808.84;;;7.01;100.00
70370;BME280;57790;51.356;-2.906;2023-03-15T08:50:11;101816.41;;;7.05;100.00
70370;BME280;57790;51.356;-2.906;2023-03-15T08:53:12;101809.13;;;7.09;100.00
70370;BME280;57790;51.356;-2.906;2023-03-15T08:56:12;101812.63;;;7.09;100.00
70370;BME280;57790;51.356;-2.906;2023-03-15T08:59:13;101802.06;;;7.09;100.00
70370;BME280;57790;51.356;-2.906;2023-03-15T09:02:14;101804.59;;;7.11;100.00
70370;BME280;57790;51.356;-2.906;2023-03-15T09:05:15;101801.47;;;7.17;100.00
70370;BME280;57790;51.356;-2.906;2023-03-15T09:08:16;101804.16;;;7.28;100.00
70370;BME280;57790;51.356;-2.906;2023-03-15T09:11:21;101801.78;;;7.25;100.00
70370;BME280;57790;51.356;-2.906;2023-03-15T09:14:21;101803.94;;;7.31;100.00
70370;BME280;57790;51.356;-2.906;2023-03-15T09:17:22;101806.22;;;7.36;100.00
70370;BME280;57790;51.356;-2.906;2023-03-15T09:20:22;101799.78;;;7.40;100.00
70370;BME280;57790;51.356;-2.906;2023-03-15T09:23:27;101797.97;;;7.40;100.00
70370;BME280;57790;51.356;-2.906;2023-03-15T09:26:27;101798.69;;;7.42;100.00
70370;BME280;57790;51.356;-2.906;2023-03-15T09:29:28;101803.75;;;7.45;100.00
70370;BME280;57790;51.356;-2.906;2023-03-15T09:32:28;101792.94;;;7.49;100.00
70370;BME280;57790;51.356;-2.906;2023-03-15T09:35:29;101796.41;;;7.49;100.00
70370;BME280;57790;51.356;-2.906;2023-03-15T09:38:29;101789.97;;;7.53;100.00
70370;BME280;57790;51.356;-2.906;2023-03-15T09:41:46;101788.78;;;7.57;100.00
70370;BME280;57790;51.356;-2.906;2023-03-15T09:44:54;101790.22;;;7.61;100.00
70370;BME280;57790;51.356;-2.906;2023-03-15T09:48:07;101790.22;;;7.61;100.00
70370;BME280;57790;51.356;-2.906;2023-03-15T09:51:26;101798.13;;;7.61;100.00
70370;BME280;57790;51.356;-2.906;2023-03-15T09:54:33;101796.84;;;7.67;100.00
70370;BME280;57790;51.356;-2.906;2023-03-15T09:57:51;101791.44;;;7.68;100.00
70370;BME280;57790;51.356;-2.906;2023-03-15T10:00:55;101791.31;;;7.70;100.00
70370;BME280;57790;51.356;-2.906;2023-03-15T10:04:00;101788.19;;;7.65;100.00
70370;BME280;57790;51.356;-2.906;2023-03-15T10:07:02;101794.22;;;7.67;100.00
70370;BME280;57790;51.356;-2.906;2023-03-15T10:10:08;101789.84;;;7.66;100.00
70370;BME280;57790;51.356;-2.906;2023-03-15T10:16:46;101786.28;;;7.78;100.00
70370;BME280;57790;51.356;-2.906;2023-03-15T10:19:54;101777.41;;;7.79;100.00
70370;BME280;57790;51.356;-2.906;2023-03-15T10:26:03;101774.53;;;7.82;100.00
70370;BME280;57790;51.356;-2.906;2023-03-15T10:29:13;101766.25;;;7.87;100.00
70370;BME280;57790;51.356;-2.906;2023-03-15T10:32:16;101766.72;;;7.92;100.00
70370;BME280;57790;51.356;-2.906;2023-03-15T10:35:18;101766.38;;;7.96;100.00
70370;BME280;57790;51.356;-2.906;2023-03-15T10:38:21;101769.75;;;7.98;100.00
70370;BME280;57790;51.356;-2.906;2023-03-15T10:41:39;101760.88;;;7.99;100.00
70370;BME280;57790;51.356;-2.906;2023-03-15T10:44:40;101762.41;;;8.02;100.00
70370;BME280;57790;51.356;-2.906;2023-03-15T10:47:44;101763.72;;;8.07;100.00
70370;BME280;57790;51.356;-2.906;2023-03-15T10:50:45;101764.44;;;8.21;100.00
70370;BME280;57790;51.356;-2.906;2023-03-15T10:53:58;101762.53;;;8.12;100.00
70370;BME280;57790;51.356;-2.906;2023-03-15T10:57:12;101770.56;;;8.21;100.00
70370;BME280;57790;51.356;-2.906;2023-03-15T11:00:33;101775.25;;;8.29;100.00
70370;BME280;57790;51.356;-2.906;2023-03-15T11:03:40;101769.97;;;8.18;100.00
70370;BME280;57790;51.356;-2.906;2023-03-15T11:06:44;101762.75;;;8.20;100.00
70370;BME280;57790;51.356;-2.906;2023-03-15T11:09:51;101768.53;;;8.25;100.00
70370;BME280;57790;51.356;-2.906;2023-03-15T11:13:13;101762.16;;;8.16;100.00
70370;BME280;57790;51.356;-2.906;2023-03-15T11:19:17;101766.72;;;8.25;100.00
70370;BME280;57790;51.356;-2.906;2023-03-15T11:22:19;101757.25;;;8.34;100.00
70370;BME280;57790;51.356;-2.906;2023-03-15T11:25:20;101757.84;;;8.38;100.00
70370;BME280;57790;51.356;-2.906;2023-03-15T11:28:28;101758.19;;;8.33;100.00
70370;BME280;57790;51.356;-2.906;2023-03-15T11:31:30;101757.84;;;8.26;100.00
70370;BME280;57790;51.356;-2.906;2023-03-15T11:35:07;101745.94;;;8.32;100.00
70370;BME280;57790;51.356;-2.906;2023-03-15T11:38:15;101752.47;;;8.39;100.00
70370;BME280;57790;51.356;-2.906;2023-03-15T11:41:26;101751.25;;;8.43;100.00
70370;BME280;57790;51.356;-2.906;2023-03-15T11:44:38;101745.69;;;8.46;100.00
70370;BME280;57790;51.356;-2.906;2023-03-15T11:47:46;101731.78;;;8.44;100.00
70370;BME280;57790;51.356;-2.906;2023-03-15T11:50:52;101731.00;;;8.53;100.00
70370;BME280;57790;51.356;-2.906;2023-03-15T11:54:18;101725.84;;;8.52;100.00
70370;BME280;57790;51.356;-2.906;2023-03-15T12:03:38;101714.38;;;8.42;100.00
70370;BME280;57790;51.356;-2.906;2023-03-15T12:06:39;101713.84;;;8.59;100.00
70370;BME280;57790;51.356;-2.906;2023-03-15T12:10:23;101717.16;;;8.72;100.00
70370;BME280;57790;51.356;-2.906;2023-03-15T12:13:30;101721.88;;;8.57;100.00
70370;BME280;57790;51.356;-2.906;2023-03-15T12:16:38;101713.25;;;8.55;100.00
70370;BME280;57790;51.356;-2.906;2023-03-15T12:19:40;101716.94;;;8.64;100.00
70370;BME280;57790;51.356;-2.906;2023-03-15T12:22:46;101719.78;;;8.72;100.00
70370;BME280;57790;51.356;-2.906;2023-03-15T12:25:53;101719.84;;;8.82;100.00
70370;BME280;57790;51.356;-2.906;2023-03-15T12:32:10;101709.19;;;8.83;100.00
70370;BME280;57790;51.356;-2.906;2023-03-15T12:35:16;101704.72;;;8.84;100.00
70370;BME280;57790;51.356;-2.906;2023-03-15T12:38:21;101699.88;;;8.89;100.00
70370;BME280;57790;51.356;-2.906;2023-03-15T12:41:40;101697.63;;;8.84;100.00
70370;BME280;57790;51.356;-2.906;2023-03-15T12:44:43;101689.22;;;8.79;100.00
70370;BME280;57790;51.356;-2.906;2023-03-15T12:53:47;101670.53;;;8.92;100.00
70370;BME280;57790;51.356;-2.906;2023-03-15T12:57:27;101664.50;;;9.01;100.00
70370;BME280;57790;51.356;-2.906;2023-03-15T13:00:29;101653.34;;;8.98;100.00
70370;BME280;57790;51.356;-2.906;2023-03-15T13:03:34;101643.97;;;8.93;100.00
70370;BME280;57790;51.356;-2.906;2023-03-15T13:10:02;101636.72;;;8.95;100.00
70370;BME280;57790;51.356;-2.906;2023-03-15T13:19:25;101619.19;;;8.94;100.00
70370;BME280;57790;51.356;-2.906;2023-03-15T13:22:33;101613.97;;;9.04;100.00
70370;BME280;57790;51.356;-2.906;2023-03-15T13:28:54;101616.47;;;9.06;100.00
70370;BME280;57790;51.356;-2.906;2023-03-15T13:32:17;101599.78;;;9.05;100.00
70370;BME280;57790;51.356;-2.906;2023-03-15T13:35:18;101610.91;;;9.09;100.00
70370;BME280;57790;51.356;-2.906;2023-03-15T13:38:27;101598.53;;;9.09;100.00
70370;BME280;57790;51.356;-2.906;2023-03-15T13:41:29;101598.16;;;9.14;100.00
70370;BME280;57790;51.356;-2.906;2023-03-15T13:44:32;101588.50;;;9.03;100.00
70370;BME280;57790;51.356;-2.906;2023-03-15T13:47:33;101587.72;;;9.12;100.00
70370;BME280;57790;51.356;-2.906;2023-03-15T13:50:35;101588.69;;;9.11;100.00
70370;BME280;57790;51.356;-2.906;2023-03-15T13:53:37;101592.16;;;9.12;100.00
70370;BME280;57790;51.356;-2.906;2023-03-15T13:57:07;101591.34;;;9.11;100.00
70370;BME280;57790;51.356;-2.906;2023-03-15T14:00:17;101571.72;;;9.14;100.00
70370;BME280;57790;51.356;-2.906;2023-03-15T14:03:20;101555.97;;;9.12;100.00
70370;BME280;57790;51.356;-2.906;2023-03-15T14:06:23;101551.94;;;9.18;100.00
70370;BME280;57790;51.356;-2.906;2023-03-15T14:09:25;101543.72;;;9.11;100.00
70370;BME280;57790;51.356;-2.906;2023-03-15T14:12:29;101532.41;;;9.09;100.00
70370;BME280;57790;51.356;-2.906;2023-03-15T14:15:40;101524.94;;;9.14;100.00
70370;BME280;57790;51.356;-2.906;2023-03-15T14:18:42;101529.38;;;9.14;100.00
70370;BME280;57790;51.356;-2.906;2023-03-15T14:21:44;101520.63;;;9.23;100.00
70370;BME280;57790;51.356;-2.906;2023-03-15T14:24:48;101521.19;;;9.17;100.00
70370;BME280;57790;51.356;-2.906;2023-03-15T14:27:49;101509.34;;;9.11;100.00
70370;BME280;57790;51.356;-2.906;2023-03-15T14:30:52;101508.94;;;9.16;100.00
70370;BME280;57790;51.356;-2.906;2023-03-15T14:33:56;101499.75;;;9.20;100.00
70370;BME280;57790;51.356;-2.906;2023-03-15T14:37:03;101503.53;;;9.27;100.00
70370;BME280;57790;51.356;-2.906;2023-03-15T14:43:15;101481.09;;;9.21;100.00
70370;BME280;57790;51.356;-2.906;2023-03-15T14:46:15;101468.56;;;9.23;100.00
70370;BME280;57790;51.356;-2.906;2023-03-15T14:49:24;101459.78;;;9.23;100.00
70370;BME280;57790;51.356;-2.906;2023-03-15T14:52:25;101450.88;;;9.24;100.00
70370;BME280;57790;51.356;-2.906;2023-03-15T14:55:30;101448.63;;;9.19;100.00
70370;BME280;57790;51.356;-2.906;2023-03-15T14:58:33;101439.03;;;9.18;100.00
70370;BME280;57790;51.356;-2.906;2023-03-15T15:01:34;101434.31;;;9.32;100.00
70370;BME280;57790;51.356;-2.906;2023-03-15T15:04:35;101413.69;;;9.25;100.00
70370;BME280;57790;51.356;-2.906;2023-03-15T15:07:37;101402.28;;;9.25;100.00
70370;BME280;57790;51.356;-2.906;2023-03-15T15:10:42;101394.22;;;9.27;100.00
70370;BME280;57790;51.356;-2.906;2023-03-15T15:13:44;101393.50;;;9.24;100.00
70370;BME280;57790;51.356;-2.906;2023-03-15T15:16:45;101397.13;;;9.23;100.00
70370;BME280;57790;51.356;-2.906;2023-03-15T15:19:45;101396.44;;;9.21;100.00
70370;BME280;57790;51.356;-2.906;2023-03-15T15:22:45;101404.38;;;9.21;100.00
70370;BME280;57790;51.356;-2.906;2023-03-15T15:25:47;101401.34;;;9.26;100.00
70370;BME280;57790;51.356;-2.906;2023-03-15T15:28:49;101396.03;;;9.26;100.00
70370;BME280;57790;51.356;-2.906;2023-03-15T15:31:49;101388.63;;;9.20;100.00
70370;BME280;57790;51.356;-2.906;2023-03-15T15:34:50;101380.28;;;9.24;100.00
70370;BME280;57790;51.356;-2.906;2023-03-15T15:37:54;101362.72;;;9.23;100.00
70370;BME280;57790;51.356;-2.906;2023-03-15T15:40:54;101358.72;;;9.29;100.00
70370;BME280;57790;51.356;-2.906;2023-03-15T15:43:55;101341.56;;;9.23;100.00
70370;BME280;57790;51.356;-2.906;2023-03-15T15:46:55;101341.44;;;9.15;100.00
70370;BME280;57790;51.356;-2.906;2023-03-15T15:49:56;101335.59;;;9.12;100.00
70370;BME280;57790;51.356;-2.906;2023-03-15T15:52:57;101332.81;;;9.13;100.00
70370;BME280;57790;51.356;-2.906;2023-03-15T15:55:58;101350.50;;;9.13;100.00
70370;BME280;57790;51.356;-2.906;2023-03-15T15:59:02;101347.41;;;9.08;100.00
70370;BME280;57790;51.356;-2.906;2023-03-15T16:02:11;101342.13;;;9.08;100.00
70370;BME280;57790;51.356;-2.906;2023-03-15T16:05:23;101340.16;;;9.10;100.00
70370;BME280;57790;51.356;-2.906;2023-03-15T16:08:24;101341.97;;;9.09;100.00
70370;BME280;57790;51.356;-2.906;2023-03-15T16:11:24;101335.16;;;9.07;100.00
70370;BME280;57790;51.356;-2.906;2023-03-15T16:14:26;101328.06;;;9.07;100.00
70370;BME280;57790;51.356;-2.906;2023-03-15T16:17:28;101315.97;;;9.05;100.00
70370;BME280;57790;51.356;-2.906;2023-03-15T16:20:28;101310.25;;;9.00;100.00
70370;BME280;57790;51.356;-2.906;2023-03-15T16:23:29;101304.13;;;8.99;100.00
70370;BME280;57790;51.356;-2.906;2023-03-15T16:26:29;101293.53;;;8.89;100.00
70370;BME280;57790;51.356;-2.906;2023-03-15T16:29:44;101299.09;;;8.86;100.00